首页
METAR-TAF:

METAR-TAF

机场 :

吉布提-安布利国际机场

吉布地, 吉布提

纬度: 11-33N, 经度: 043-10E, 海拔: 49米

当前天气观测

该预报发布于25分钟前的09:00 UTC
温度 32°C
湿度 56%
气压 1013 hPa
能见度10公里或以上
少量云层高于2300英尺
散云层高于2600英尺

METAR: HDAM 040900Z 080/18KT 9999 FEW023 SCT026 32/22 Q1013

时间: 12:25 (09:25 UTC)

预报

该预报发布于10小时和25分钟前的23:00 UTC
预报有效从04日的 00点(UTC)到 04日的 24点(UTC)
风速12节,风向东转东南
能见度10公里或以上
多云层高于2000英尺
少量云层高于3000英尺, 积雨云.
多云层高于4000英尺
成为
从 04日的 06点(UTC)到 04日的 12点(UTC)
风速15节,风向,有时为18节阵风
能見度: 9000
散云层高于2300英尺
散云层高于3000英尺
小阵雨
成为
从 04日的 15点(UTC)到 04日的 21点(UTC)
风速10节,风向东转东南,有时为15节阵风
散云层高于2000英尺

TAF: HDAM 032300Z 0400/0424 11012KT 9999 BKN020 FEW030CB BKN040 BECMG 0406/0412 09015G18KT 9000 -SHRA SCT023 SCT030 BECMG 0415/0421 12010G15KT SCT020

超过4000个机场的气象观测和天气预报(METAR&TAF报告)。

可查询的气象台以黄色和红色小点在地图上表示。

将鼠标移到小点上方,可查看气象台名称。

然后点击查看天气观测和预报。

如需切换地图:点击带黑十字的绿色按钮放大地图;点击带横线的绿色按钮缩小地图;或者点击绿色箭头查看邻近地区的地图。


METAR-TAF: